Flight Track Log - Related Links

Times and Time Zones

All times are in EDT time to prevent confusion due to time zone crossing. See the ASQ6115 flight status page for this flight to view local times or setup timezone preferences in your user account.

Time Position Orientation Groundspeed Altitude Reporting Facility
EDT Latitude Longitude Course Direction KTS MPH feet Rate Location/Type
Mon 08:44:48 PM 43.0242 -89.3022 163° South 196 226 6,500  Level Chicago Center
Mon 08:45:00 PM 42.9459 -89.2517 164° South  Level FlightAware Approximate
Mon 08:45:50 PM 42.9497 -89.2714 163° South 263 303 9,000  Level Chicago Center
Mon 08:46:00 PM 42.8824 -89.2324 144° Southeast  Level FlightAware Approximate
Mon 08:46:52 PM 42.8717 -89.2378 162° South 289 333 10,900  Level Chicago Center
Mon 08:47:00 PM 42.8219 -89.2017 166° South  Level FlightAware Approximate
Mon 08:47:54 PM 42.7842 -89.2333 178° South 311 358 11,000  Level Chicago Center
Mon 08:48:00 PM 42.7574 -89.1852 170° South  Level FlightAware Approximate
Mon 08:48:56 PM 42.7006 -89.2275 177° South 304 350 11,000  Level Chicago Center
Mon 08:49:00 PM 42.6871 -89.1571 163° South  Level FlightAware Approximate
Mon 08:49:58 PM 42.6067 -89.2206 177° South 292 336 11,000  Level Chicago Center
Mon 08:51:00 PM 42.5372 -89.2106 174° South 258 297 11,000  Level Chicago Center
Mon 08:52:02 PM 42.5186 -89.1122 104° East 289 333 11,000  Level Chicago Center
Mon 08:53:04 PM 42.5172 -89.0058 91° East 284 327 11,000 -97 Level Chicago Center
Mon 08:54:06 PM 42.4858 -88.9017 112° Southeast 302 348 10,800 -726 Descending Chicago Center
Mon 08:55:08 PM 42.4503 -88.7681 110° East 320 368 9,500 -871 Descending Chicago Center
Mon 08:56:10 PM 42.4208 -88.6633 111° Southeast 303 349 9,000 -242 Descending Chicago Center
Mon 08:57:12 PM 42.3906 -88.5547 111° Southeast 306 352 9,000  Level Chicago Center
Mon 08:58:14 PM 42.3600 -88.4492 111° Southeast 304 350 9,000  Level Chicago Center
Mon 08:59:16 PM 42.3253 -88.3442 114° Southeast 307 353 9,000 -339 Level Chicago Center
Mon 09:00:18 PM 42.2850 -88.2581 122° Southeast 278 320 8,300 -1,065 Descending Chicago Center
Mon 09:01:20 PM 42.2219 -88.1978 145° Southeast 234 269 6,800 -1,306 Descending Chicago Center
Mon 09:02:22 PM 42.1797 -88.1467 138° Southeast 213 245 5,600 -1,113 Descending Chicago Center
Mon 09:03:24 PM 42.1394 -88.1028 141° Southeast 195 224 4,500 -968 Descending Chicago Center
Mon 09:04:26 PM 42.1022 -88.0600 140° Southeast 182 209 3,600 -871 Descending Chicago Center

Login

Don't have an account? Register now (free) for customized features, flight alerts, and more!